createdAt,value
2019-04-28T00:00:01.446Z,86.46
2019-04-28T00:01:01.133Z,86.26
2019-04-28T00:02:01.325Z,86.61
2019-04-28T00:03:00.751Z,86.77
2019-04-28T00:04:01.344Z,87.08
2019-04-28T00:05:01.544Z,87.90
2019-04-28T00:06:01.159Z,86.77
2019-04-28T00:07:01.803Z,86.77
2019-04-28T00:08:01.156Z,86.91
2019-04-28T00:09:01.692Z,86.77
2019-04-28T00:10:01.088Z,86.98
2019-04-28T00:11:01.808Z,87.22
2019-04-28T00:12:01.753Z,86.91
2019-04-28T00:13:00.993Z,87.63
2019-04-28T00:14:01.728Z,87.49
2019-04-28T00:14:59.899Z,87.53
2019-04-28T00:16:01.646Z,87.53
2019-04-28T00:17:01.077Z,87.73
2019-04-28T00:18:01.569Z,88.10
2019-04-28T00:19:01.100Z,88.04
2019-04-28T00:20:01.319Z,88.04
2019-04-28T00:21:00.935Z,87.94
2019-04-28T00:22:01.019Z,87.90
2019-04-28T00:23:01.400Z,88.35
2019-04-28T00:24:01.644Z,87.94
2019-04-28T00:25:01.577Z,88.71
2019-04-28T00:26:01.496Z,88.35
2019-04-28T00:27:01.664Z,88.14
2019-04-28T00:28:01.545Z,88.45
2019-04-28T00:29:01.269Z,88.04
2019-04-28T00:30:01.944Z,88.65
2019-04-28T00:30:59.730Z,88.45
2019-04-28T00:32:01.179Z,88.45
2019-04-28T00:33:01.702Z,88.90
2019-04-28T00:34:01.268Z,89.21
2019-04-28T00:34:59.683Z,88.90
2019-04-28T00:36:01.491Z,89.42
2019-04-28T00:37:01.295Z,89.92
2019-04-28T00:38:01.425Z,89.21
2019-04-28T00:39:01.381Z,89.21
2019-04-28T00:40:00.997Z,89.72
2019-04-28T00:40:59.618Z,90.13
2019-04-28T00:42:03.036Z,90.17
2019-04-28T00:43:00.890Z,89.76
2019-04-28T00:43:59.588Z,90.58
2019-04-28T00:45:01.437Z,90.48
2019-04-28T00:46:00.953Z,90.48
2019-04-28T00:47:01.133Z,90.48
2019-04-28T00:48:01.023Z,90.58
2019-04-28T00:48:59.536Z,90.58
2019-04-28T00:49:59.527Z,91.09
2019-04-28T00:51:01.673Z,91.20
2019-04-28T00:52:00.663Z,90.79
2019-04-28T00:52:59.490Z,91.09
2019-04-28T00:54:00.813Z,91.03
2019-04-28T00:55:01.196Z,90.93
2019-04-28T00:55:59.456Z,91.03
2019-04-28T00:56:59.447Z,91.44
2019-04-28T00:58:00.875Z,92.72
2019-04-28T00:58:59.425Z,92.27
2019-04-28T00:59:59.412Z,91.96
2019-04-28T01:01:01.303Z,92.06
2019-04-28T01:02:01.136Z,93.19
2019-04-28T01:02:59.380Z,92.98
2019-04-28T01:03:59.369Z,93.54
2019-04-28T01:05:01.271Z,93.13
2019-04-28T01:05:59.349Z,93.02
2019-04-28T01:06:59.339Z,93.29
2019-04-28T01:08:01.009Z,93.64
2019-04-28T01:08:59.316Z,93.74
2019-04-28T01:10:01.275Z,93.19
2019-04-28T01:10:59.296Z,93.70
2019-04-28T01:12:01.676Z,93.39
2019-04-28T01:12:59.276Z,93.80
2019-04-28T01:13:59.262Z,93.19
2019-04-28T01:15:00.232Z,93.19
2019-04-28T01:15:59.456Z,93.39
2019-04-28T01:16:59.858Z,93.45
2019-04-28T01:18:00.736Z,93.15
2019-04-28T01:19:00.102Z,93.15
2019-04-28T01:19:59.757Z,93.25
2019-04-28T01:20:59.753Z,93.35
2019-04-28T01:22:00.346Z,93.35
2019-04-28T01:23:00.439Z,93.30
2019-04-28T01:23:59.815Z,92.90
2019-04-28T01:24:59.605Z,93.04
2019-04-28T01:26:00.073Z,92.69
2019-04-28T01:27:00.471Z,92.18
2019-04-28T01:28:00.191Z,92.28
2019-04-28T01:28:59.665Z,92.28
2019-04-28T01:30:06.209Z,92.59
2019-04-28T01:31:00.081Z,92.44
2019-04-28T01:32:00.398Z,91.93
2019-04-28T01:32:59.670Z,92.03
2019-04-28T01:34:00.103Z,92.14
2019-04-28T01:34:59.829Z,92.03
2019-04-28T01:36:00.455Z,91.73
2019-04-28T01:36:59.847Z,91.89
2019-04-28T01:38:00.128Z,92.14
2019-04-28T01:38:59.985Z,92.34
2019-04-28T01:39:59.708Z,91.78
2019-04-28T01:40:59.961Z,91.89
2019-04-28T01:41:59.545Z,91.83
2019-04-28T01:42:59.783Z,92.10
2019-04-28T01:44:00.158Z,92.10
2019-04-28T01:45:00.613Z,91.89
2019-04-28T01:46:00.176Z,92.10
2019-04-28T01:47:00.941Z,91.38
2019-04-28T01:48:00.537Z,90.66
2019-04-28T01:48:59.916Z,90.97
2019-04-28T01:50:00.210Z,91.27
2019-04-28T01:50:59.784Z,90.86
2019-04-28T01:52:00.824Z,90.97
2019-04-28T01:52:59.791Z,90.56
2019-04-28T01:54:00.182Z,90.45
2019-04-28T01:55:00.458Z,90.97
2019-04-28T01:55:59.550Z,90.25
2019-04-28T01:57:01.124Z,90.97
2019-04-28T01:57:59.651Z,90.05
2019-04-28T01:59:00.292Z,90.56
2019-04-28T01:59:59.802Z,90.45
2019-04-28T02:00:59.546Z,89.98
2019-04-28T02:02:00.100Z,89.94
2019-04-28T02:03:00.412Z,91.07
2019-04-28T02:04:00.246Z,90.66
2019-04-28T02:04:59.856Z,90.45
2019-04-28T02:06:00.160Z,91.07
2019-04-28T02:06:59.897Z,91.11
2019-04-28T02:08:00.293Z,91.38
2019-04-28T02:09:00.709Z,91.17
2019-04-28T02:10:00.534Z,90.86
2019-04-28T02:11:00.124Z,90.66
2019-04-28T02:12:00.679Z,90.66
2019-04-28T02:12:59.898Z,90.97
2019-04-28T02:13:59.737Z,90.81
2019-04-28T02:15:00.632Z,91.01
2019-04-28T02:16:00.052Z,90.70
2019-04-28T02:17:00.368Z,91.31
2019-04-28T02:18:00.090Z,91.42
2019-04-28T02:18:59.707Z,91.73
2019-04-28T02:20:00.441Z,91.01
2019-04-28T02:20:59.594Z,92.34
2019-04-28T02:21:59.473Z,91.31
2019-04-28T02:22:59.879Z,91.05
2019-04-28T02:23:59.928Z,90.60
2019-04-28T02:25:00.235Z,90.95
2019-04-28T02:25:59.746Z,90.54
2019-04-28T02:27:00.634Z,90.34
2019-04-28T02:27:59.593Z,91.26
2019-04-28T02:29:00.227Z,90.95
2019-04-28T02:30:00.190Z,90.44
2019-04-28T02:30:58.434Z,90.64
2019-04-28T02:32:01.732Z,91.05
2019-04-28T02:33:01.335Z,91.05
2019-04-28T02:34:00.749Z,91.16
2019-04-28T02:35:01.179Z,90.89
2019-04-28T02:36:01.208Z,91.09
2019-04-28T02:37:01.516Z,91.09
2019-04-28T02:38:00.037Z,91.09
2019-04-28T02:39:00.641Z,90.99
2019-04-28T02:40:00.673Z,90.99
2019-04-28T02:41:00.172Z,90.28
2019-04-28T02:42:00.986Z,90.07
2019-04-28T02:42:58.306Z,90.48
2019-04-28T02:44:00.695Z,90.07
2019-04-28T02:45:00.498Z,89.81
2019-04-28T02:46:00.536Z,89.81
2019-04-28T02:47:00.703Z,89.60
2019-04-28T02:48:00.782Z,90.11
2019-04-28T02:49:00.804Z,89.81
2019-04-28T02:50:00.948Z,90.11
2019-04-28T02:51:01.040Z,89.70
2019-04-28T02:51:59.992Z,89.64
2019-04-28T02:52:58.199Z,89.60
2019-04-28T02:54:00.461Z,89.39
2019-04-28T02:54:59.545Z,90.01
2019-04-28T02:55:58.163Z,90.05
2019-04-28T02:57:01.067Z,89.84
2019-04-28T02:57:58.142Z,89.75
2019-04-28T02:59:00.837Z,89.43
2019-04-28T03:00:00.512Z,89.23
2019-04-28T03:01:08.975Z,89.43
2019-04-28T03:02:00.682Z,89.75
2019-04-28T03:02:58.096Z,90.36
2019-04-28T03:04:00.152Z,89.03
2019-04-28T03:05:00.324Z,89.75
2019-04-28T03:06:01.124Z,90.36
2019-04-28T03:06:58.047Z,89.43
2019-04-28T03:07:58.042Z,89.64
2019-04-28T03:09:00.289Z,89.64
2019-04-28T03:09:58.013Z,89.43
2019-04-28T03:11:00.635Z,89.23
2019-04-28T03:11:57.993Z,89.64
2019-04-28T03:13:00.802Z,90.16
2019-04-28T03:14:00.772Z,89.75
2019-04-28T03:15:00.330Z,89.54
2019-04-28T03:15:57.952Z,89.84
2019-04-28T03:17:00.659Z,89.23
2019-04-28T03:17:57.930Z,89.23
2019-04-28T03:18:57.925Z,89.64
2019-04-28T03:20:00.738Z,89.43
2019-04-28T03:20:57.895Z,89.69
2019-04-28T03:21:57.883Z,89.75
2019-04-28T03:23:00.335Z,90.05
2019-04-28T03:23:57.861Z,89.13
2019-04-28T03:24:57.849Z,89.75
2019-04-28T03:25:57.840Z,89.54
2019-04-28T03:27:00.574Z,88.66
2019-04-28T03:28:00.598Z,88.96
2019-04-28T03:28:57.809Z,89.37
2019-04-28T03:30:00.503Z,89.99
2019-04-28T03:30:57.801Z,89.48
2019-04-28T03:32:18.223Z,89.78
2019-04-28T03:33:04.660Z,89.48
2019-04-28T03:34:03.387Z,89.48
2019-04-28T03:35:03.091Z,89.89
2019-04-28T03:36:07.074Z,89.99
2019-04-28T03:37:00.327Z,89.69
2019-04-28T03:37:57.711Z,89.27
2019-04-28T03:38:57.700Z,90.09
2019-04-28T03:40:00.294Z,89.69
2019-04-28T03:40:57.690Z,89.78
2019-04-28T03:42:00.063Z,90.09
2019-04-28T03:43:00.245Z,89.69
2019-04-28T03:44:00.476Z,89.69
2019-04-28T03:44:57.634Z,89.89
2019-04-28T03:46:02.773Z,89.48
2019-04-28T03:47:00.731Z,90.30
2019-04-28T03:48:00.209Z,90.91
2019-04-28T03:48:57.591Z,90.61
2019-04-28T03:49:59.950Z,90.20
2019-04-28T03:50:57.569Z,90.30
2019-04-28T03:51:57.561Z,90.71
2019-04-28T03:52:57.549Z,90.71
2019-04-28T03:53:57.540Z,91.53
2019-04-28T03:54:57.525Z,90.75
2019-04-28T03:55:57.515Z,91.06
2019-04-28T03:56:57.505Z,91.57
2019-04-28T03:57:57.495Z,92.70
2019-04-28T03:59:00.312Z,92.19
2019-04-28T03:59:57.472Z,92.19
2019-04-28T04:01:02.695Z,92.19
2019-04-28T04:02:00.782Z,93.12
2019-04-28T04:02:57.442Z,93.21
2019-04-28T04:03:57.428Z,93.21
2019-04-28T04:04:57.418Z,93.12
2019-04-28T04:05:57.412Z,93.32
2019-04-28T04:06:57.399Z,93.63
2019-04-28T04:07:57.386Z,93.83
2019-04-28T04:09:00.152Z,94.14
2019-04-28T04:09:57.363Z,94.90
2019-04-28T04:10:57.352Z,94.76
2019-04-28T04:11:57.343Z,94.80
2019-04-28T04:12:57.331Z,95.42
2019-04-28T04:13:57.320Z,96.19
2019-04-28T04:14:57.309Z,95.21
2019-04-28T04:15:57.298Z,95.17
2019-04-28T04:16:57.294Z,95.89
2019-04-28T04:17:57.278Z,96.19
2019-04-28T04:18:57.266Z,96.34
2019-04-28T04:19:57.256Z,96.65
2019-04-28T04:20:57.248Z,96.95
2019-04-28T04:21:57.235Z,97.37
2019-04-28T04:22:57.224Z,97.27
2019-04-28T04:23:57.212Z,97.27
2019-04-28T04:24:57.204Z,97.37
2019-04-28T04:25:57.192Z,97.47
2019-04-28T04:26:57.190Z,97.16
2019-04-28T04:27:57.179Z,97.37
2019-04-28T04:28:57.159Z,97.88
2019-04-28T04:29:57.157Z,97.78
2019-04-28T04:30:57.137Z,98.39
2019-04-28T04:32:10.256Z,98.08
2019-04-28T04:33:00.884Z,97.88
2019-04-28T04:33:57.105Z,97.99
2019-04-28T04:34:57.093Z,98.39
2019-04-28T04:35:57.084Z,98.39
2019-04-28T04:36:57.071Z,98.60
2019-04-28T04:37:57.068Z,98.80
2019-04-28T04:38:57.050Z,98.50
2019-04-28T04:39:57.046Z,98.50
2019-04-28T04:40:57.029Z,98.80
2019-04-28T04:41:57.018Z,99.01
2019-04-28T04:42:57.007Z,99.21
2019-04-28T04:43:57.001Z,99.42
2019-04-28T04:44:56.994Z,99.11
2019-04-28T04:45:56.974Z,99.63
2019-04-28T04:46:56.967Z,99.32
2019-04-28T04:47:56.954Z,99.32
2019-04-28T04:48:56.942Z,99.32
2019-04-28T04:49:56.930Z,99.99
2019-04-28T04:50:56.919Z,99.99
2019-04-28T04:51:56.911Z,99.99
2019-04-28T04:52:56.898Z,99.99
2019-04-28T04:53:56.888Z,99.99
2019-04-28T04:54:56.883Z,99.99
2019-04-28T04:55:56.867Z,99.99
2019-04-28T04:56:56.856Z,99.99
2019-04-28T04:57:56.844Z,99.99
2019-04-28T04:58:56.833Z,99.99
2019-04-28T04:59:56.822Z,99.99
2019-04-28T05:00:56.816Z,99.99
2019-04-28T05:01:56.811Z,99.99
2019-04-28T05:02:56.789Z,99.99
2019-04-28T05:03:56.779Z,99.99
2019-04-28T05:04:56.768Z,99.99
2019-04-28T05:05:56.757Z,99.99
2019-04-28T05:06:56.746Z,99.99
2019-04-28T05:07:56.736Z,99.99
2019-04-28T05:08:56.725Z,99.99
2019-04-28T05:09:56.714Z,99.99
2019-04-28T05:10:56.706Z,99.99
2019-04-28T05:11:56.693Z,99.99
2019-04-28T05:12:56.683Z,99.99
2019-04-28T05:13:56.671Z,99.99
2019-04-28T05:14:56.660Z,99.99
2019-04-28T05:15:56.650Z,99.99
2019-04-28T05:16:56.638Z,99.99
2019-04-28T05:17:56.628Z,99.99
2019-04-28T05:18:56.616Z,99.99
2019-04-28T05:19:56.607Z,99.99
2019-04-28T05:20:56.595Z,99.99
2019-04-28T05:21:56.585Z,99.99
2019-04-28T05:22:56.576Z,99.99
2019-04-28T05:23:56.564Z,99.99
2019-04-28T05:24:56.552Z,99.83
2019-04-28T05:25:56.540Z,99.32
2019-04-28T05:26:56.532Z,99.73
2019-04-28T05:27:59.355Z,99.32
2019-04-28T05:28:59.188Z,99.32
2019-04-28T05:29:56.730Z,99.63
2019-04-28T05:30:56.486Z,99.73
2019-04-28T05:31:59.822Z,99.93
2019-04-28T05:32:57.546Z,99.52
2019-04-28T05:33:56.455Z,99.32
2019-04-28T05:34:56.443Z,98.91
2019-04-28T05:36:01.069Z,99.79
2019-04-28T05:36:57.420Z,99.83
2019-04-28T05:37:56.414Z,99.58
2019-04-28T05:38:56.404Z,99.32
2019-04-28T05:39:56.391Z,99.79
2019-04-28T05:40:56.379Z,99.99
2019-04-28T05:41:56.369Z,99.99
2019-04-28T05:42:56.360Z,99.52
2019-04-28T05:43:56.347Z,99.99
2019-04-28T05:44:56.339Z,99.93
2019-04-28T05:45:56.325Z,99.42
2019-04-28T05:46:56.318Z,99.27
2019-04-28T05:47:56.304Z,99.99
2019-04-28T05:48:56.295Z,99.99
2019-04-28T05:49:56.285Z,99.99
2019-04-28T05:50:56.272Z,99.99
2019-04-28T05:51:56.264Z,99.99
2019-04-28T05:52:56.251Z,99.99
2019-04-28T05:53:56.240Z,99.99
2019-04-28T05:54:56.228Z,99.99
2019-04-28T05:55:56.218Z,99.99
2019-04-28T05:56:56.207Z,99.93
2019-04-28T05:57:56.197Z,99.99
2019-04-28T05:58:56.187Z,99.99
2019-04-28T05:59:56.176Z,99.83
2019-04-28T06:00:56.165Z,99.99
2019-04-28T06:01:56.155Z,99.99
2019-04-28T06:02:56.844Z,99.73
2019-04-28T06:03:56.131Z,99.99
2019-04-28T06:04:56.126Z,99.83
2019-04-28T06:05:57.098Z,99.99
2019-04-28T06:06:56.100Z,99.99
2019-04-28T06:07:56.089Z,99.89
2019-04-28T06:08:56.087Z,99.42
2019-04-28T06:09:56.066Z,99.79
2019-04-28T06:10:56.056Z,99.99
2019-04-28T06:11:56.094Z,99.99
2019-04-28T06:12:56.035Z,99.68
2019-04-28T06:13:56.029Z,99.89
2019-04-28T06:14:56.017Z,99.68
2019-04-28T06:15:56.004Z,99.38
2019-04-28T06:16:55.992Z,99.17
2019-04-28T06:17:55.981Z,99.17
2019-04-28T06:18:55.970Z,99.58
2019-04-28T06:19:55.965Z,99.79
2019-04-28T06:20:55.952Z,99.68
2019-04-28T06:21:55.943Z,99.38
2019-04-28T06:22:55.931Z,99.48
2019-04-28T06:23:55.918Z,99.68
2019-04-28T06:24:55.911Z,99.79
2019-04-28T06:25:55.903Z,99.07
2019-04-28T06:26:55.890Z,99.68
2019-04-28T06:27:55.873Z,99.58
2019-04-28T06:28:55.863Z,99.27
2019-04-28T06:29:55.858Z,99.99
2019-04-28T06:30:55.841Z,99.89
2019-04-28T06:31:55.830Z,99.58
2019-04-28T06:33:07.179Z,99.63
2019-04-28T06:33:56.808Z,99.27
2019-04-28T06:34:55.798Z,99.58
2019-04-28T06:35:55.789Z,99.38
2019-04-28T06:36:55.776Z,98.55
2019-04-28T06:37:55.766Z,98.76
2019-04-28T06:38:55.765Z,98.82
2019-04-28T06:39:55.746Z,98.96
2019-04-28T06:40:55.735Z,99.68
2019-04-28T06:41:55.724Z,99.27
2019-04-28T06:42:55.712Z,99.17
2019-04-28T06:43:55.703Z,99.22
2019-04-28T06:44:55.694Z,99.12
2019-04-28T06:45:55.679Z,98.25
2019-04-28T06:46:55.669Z,98.30
2019-04-28T06:47:55.661Z,98.55
2019-04-28T06:48:55.651Z,98.61
2019-04-28T06:49:55.636Z,98.25
2019-04-28T06:50:55.627Z,98.35
2019-04-28T06:51:55.617Z,98.14
2019-04-28T06:52:55.605Z,98.30
2019-04-28T06:53:55.593Z,98.35
2019-04-28T06:54:55.585Z,98.14
2019-04-28T06:55:55.573Z,97.94
2019-04-28T06:56:55.563Z,97.73
2019-04-28T06:57:55.552Z,97.83
2019-04-28T06:58:59.271Z,98.14
2019-04-28T06:59:55.534Z,97.69
2019-04-28T07:00:55.519Z,97.79
2019-04-28T07:01:55.513Z,97.07
2019-04-28T07:02:55.499Z,97.28
2019-04-28T07:03:55.485Z,97.07
2019-04-28T07:05:01.697Z,96.82
2019-04-28T07:05:56.463Z,97.03
2019-04-28T07:06:55.454Z,97.33
2019-04-28T07:07:55.451Z,97.13
2019-04-28T07:08:55.434Z,96.47
2019-04-28T07:09:55.421Z,96.06
2019-04-28T07:10:55.412Z,95.61
2019-04-28T07:11:55.399Z,95.81
2019-04-28T07:12:55.397Z,95.81
2019-04-28T07:13:55.396Z,95.76
2019-04-28T07:14:55.370Z,95.76
2019-04-28T07:15:55.360Z,95.41
2019-04-28T07:16:55.348Z,94.59
2019-04-28T07:17:55.334Z,93.26
2019-04-28T07:18:55.325Z,93.06
2019-04-28T07:19:55.312Z,93.26
2019-04-28T07:20:55.304Z,92.28
2019-04-28T07:21:55.291Z,93.10
2019-04-28T07:22:55.281Z,93.82
2019-04-28T07:23:55.272Z,94.12
2019-04-28T07:24:55.260Z,94.33
2019-04-28T07:25:55.249Z,95.15
2019-04-28T07:26:55.237Z,94.12
2019-04-28T07:27:55.228Z,94.12
2019-04-28T07:28:55.217Z,93.55
2019-04-28T07:29:55.208Z,93.86
2019-04-28T07:30:55.195Z,93.86
2019-04-28T07:31:55.187Z,94.27
2019-04-28T07:32:55.174Z,94.17
2019-04-28T07:33:55.163Z,93.41
2019-04-28T07:34:55.150Z,93.82
2019-04-28T07:35:55.144Z,93.30
2019-04-28T07:36:55.133Z,93.67
2019-04-28T07:37:55.126Z,93.30
2019-04-28T07:38:55.108Z,92.28
2019-04-28T07:39:56.758Z,92.90
2019-04-28T07:40:55.088Z,93.00
2019-04-28T07:41:55.095Z,93.04
2019-04-28T07:42:55.071Z,93.25
2019-04-28T07:43:55.056Z,93.35
2019-04-28T07:44:55.044Z,93.20
2019-04-28T07:45:55.032Z,93.86
2019-04-28T07:46:55.026Z,93.04
2019-04-28T07:47:55.011Z,93.45
2019-04-28T07:48:55.002Z,93.66
2019-04-28T07:49:54.993Z,93.96
2019-04-28T07:50:54.981Z,94.33
2019-04-28T07:51:54.969Z,94.17
2019-04-28T07:52:54.957Z,94.27
2019-04-28T07:53:54.952Z,94.27
2019-04-28T07:54:54.939Z,93.66
2019-04-28T07:55:54.926Z,94.27
2019-04-28T07:56:54.917Z,94.58
2019-04-28T07:57:54.903Z,94.48
2019-04-28T07:58:54.893Z,94.48
2019-04-28T07:59:54.882Z,94.17
2019-04-28T08:00:54.875Z,94.23
2019-04-28T08:01:54.862Z,94.43
2019-04-28T08:02:54.851Z,94.08
2019-04-28T08:03:57.429Z,94.49
2019-04-28T08:04:54.828Z,93.98
2019-04-28T08:05:54.877Z,93.77
2019-04-28T08:06:54.810Z,93.98
2019-04-28T08:07:54.799Z,94.12
2019-04-28T08:08:54.786Z,94.54
2019-04-28T08:09:54.774Z,94.95
2019-04-28T08:10:54.765Z,94.95
2019-04-28T08:11:54.760Z,94.89
2019-04-28T08:12:54.746Z,95.76
2019-04-28T08:13:54.736Z,95.61
2019-04-28T08:14:54.721Z,95.40
2019-04-28T08:15:54.710Z,96.28
2019-04-28T08:16:54.699Z,95.91
2019-04-28T08:17:54.694Z,94.27
2019-04-28T08:18:54.684Z,94.78
2019-04-28T08:19:54.669Z,94.78
2019-04-28T08:20:54.659Z,94.42
2019-04-28T08:21:54.647Z,93.44
2019-04-28T08:22:54.638Z,93.39
2019-04-28T08:23:54.631Z,93.60
2019-04-28T08:24:54.615Z,93.74
2019-04-28T08:25:54.607Z,93.44
2019-04-28T08:26:54.592Z,94.26
2019-04-28T08:27:54.583Z,94.56
2019-04-28T08:28:54.585Z,95.14
2019-04-28T08:29:58.648Z,95.81
2019-04-28T08:30:54.600Z,94.21
2019-04-28T08:31:54.545Z,92.47
2019-04-28T08:32:54.528Z,91.96
2019-04-28T08:34:02.174Z,93.08
2019-04-28T08:34:55.515Z,92.32
2019-04-28T08:35:54.496Z,92.16
2019-04-28T08:36:54.485Z,93.25
2019-04-28T08:37:54.478Z,92.38
2019-04-28T08:38:54.514Z,92.69
2019-04-28T08:39:54.455Z,92.03
2019-04-28T08:40:54.446Z,90.91
2019-04-28T08:41:54.431Z,90.66
2019-04-28T08:42:54.422Z,89.94
2019-04-28T08:43:54.408Z,89.84
2019-04-28T08:44:54.402Z,89.03
2019-04-28T08:45:54.388Z,89.03
2019-04-28T08:46:54.375Z,88.92
2019-04-28T08:47:54.365Z,86.77
2019-04-28T08:48:54.401Z,86.81
2019-04-28T08:49:54.349Z,89.23
2019-04-28T08:50:54.332Z,88.71
2019-04-28T08:51:54.321Z,89.17
2019-04-28T08:52:54.317Z,88.56
2019-04-28T08:53:54.306Z,88.96
2019-04-28T08:54:54.289Z,88.86
2019-04-28T08:55:54.286Z,88.35
2019-04-28T08:56:54.269Z,88.92
2019-04-28T08:57:54.279Z,87.38
2019-04-28T08:58:54.247Z,87.49
2019-04-28T08:59:54.239Z,87.08
2019-04-28T09:00:54.227Z,85.20
2019-04-28T09:01:54.215Z,83.97
2019-04-28T09:02:54.204Z,83.73
2019-04-28T09:03:54.198Z,83.11
2019-04-28T09:04:54.183Z,83.56
2019-04-28T09:05:54.172Z,83.62
2019-04-28T09:06:54.160Z,85.02
2019-04-28T09:07:54.160Z,85.02
2019-04-28T09:08:54.145Z,84.61
2019-04-28T09:09:54.127Z,83.38
2019-04-28T09:10:54.124Z,84.41
2019-04-28T09:11:54.130Z,84.09
2019-04-28T09:12:54.107Z,85.12
2019-04-28T09:13:54.086Z,86.41
2019-04-28T09:14:54.072Z,82.96
2019-04-28T09:15:54.063Z,83.06
2019-04-28T09:16:54.137Z,83.18
2019-04-28T09:17:54.042Z,81.29
2019-04-28T09:18:54.033Z,80.47
2019-04-28T09:19:54.019Z,81.53
2019-04-28T09:20:54.013Z,82.14
2019-04-28T09:21:54.015Z,83.57
2019-04-28T09:22:53.989Z,82.55
2019-04-28T09:23:53.978Z,82.21
2019-04-28T09:24:53.967Z,80.61
2019-04-28T09:25:53.959Z,80.20
2019-04-28T09:26:54.001Z,81.46
2019-04-28T09:27:53.938Z,81.77
2019-04-28T09:28:53.926Z,82.49
2019-04-28T09:29:53.915Z,80.58
2019-04-28T09:30:53.903Z,80.99
2019-04-28T09:31:53.889Z,81.34
2019-04-28T09:32:53.881Z,81.54
2019-04-28T09:33:53.868Z,82.12
2019-04-28T09:34:53.861Z,82.46
2019-04-28T09:35:53.852Z,82.56
2019-04-28T09:36:53.835Z,82.53
2019-04-28T09:37:53.829Z,83.24
2019-04-28T09:38:53.813Z,82.42
2019-04-28T09:39:53.805Z,82.32
2019-04-28T09:40:53.791Z,81.60
2019-04-28T09:41:53.782Z,80.38
2019-04-28T09:42:53.770Z,80.38
2019-04-28T09:43:53.759Z,80.48
2019-04-28T09:44:53.747Z,82.28
2019-04-28T09:45:53.740Z,80.30
2019-04-28T09:46:53.726Z,79.25
2019-04-28T09:47:53.715Z,79.93
2019-04-28T09:48:53.703Z,78.56
2019-04-28T09:49:53.694Z,77.91
2019-04-28T09:50:53.687Z,74.32
2019-04-28T09:51:53.672Z,72.08
2019-04-28T09:52:53.660Z,74.18
2019-04-28T09:53:53.651Z,73.13
2019-04-28T09:54:53.644Z,70.72
2019-04-28T09:55:53.630Z,72.86
2019-04-28T09:56:56.979Z,70.89
2019-04-28T09:57:54.925Z,73.16
2019-04-28T09:58:53.597Z,72.82
2019-04-28T09:59:53.590Z,70.28
2019-04-28T10:00:53.578Z,69.57
2019-04-28T10:01:53.568Z,70.48
2019-04-28T10:02:53.557Z,70.82
2019-04-28T10:03:53.547Z,71.56
2019-04-28T10:04:53.535Z,71.09
2019-04-28T10:05:53.523Z,72.45
2019-04-28T10:06:53.528Z,72.21
2019-04-28T10:07:53.501Z,73.74
2019-04-28T10:08:53.489Z,72.96
2019-04-28T10:09:53.480Z,72.86
2019-04-28T10:10:53.468Z,74.59
2019-04-28T10:11:53.459Z,75.71
2019-04-28T10:12:53.449Z,75.44
2019-04-28T10:13:53.439Z,75.71
2019-04-28T10:14:53.432Z,74.59
2019-04-28T10:15:53.422Z,74.90
2019-04-28T10:16:53.404Z,75.88
2019-04-28T10:17:53.399Z,73.64
2019-04-28T10:18:53.410Z,75.34
2019-04-28T10:19:53.373Z,74.73
2019-04-28T10:20:53.363Z,72.65
2019-04-28T10:21:53.352Z,71.94
2019-04-28T10:22:53.345Z,72.72
2019-04-28T10:23:53.328Z,70.75
2019-04-28T10:24:53.321Z,69.84
2019-04-28T10:25:53.307Z,70.45
2019-04-28T10:26:53.296Z,69.46
2019-04-28T10:27:53.285Z,71.19
2019-04-28T10:28:53.274Z,70.89
2019-04-28T10:29:53.267Z,71.09
2019-04-28T10:30:53.254Z,71.70
2019-04-28T10:31:53.243Z,69.93
2019-04-28T10:32:53.232Z,70.17
2019-04-28T10:33:53.222Z,69.84
2019-04-28T10:34:54.980Z,71.43
2019-04-28T10:35:53.202Z,67.97
2019-04-28T10:36:53.188Z,69.40
2019-04-28T10:37:53.188Z,69.60
2019-04-28T10:38:53.169Z,70.95
2019-04-28T10:39:53.170Z,71.39
2019-04-28T10:40:53.147Z,72.72
2019-04-28T10:41:53.135Z,71.70
2019-04-28T10:42:53.125Z,71.67
2019-04-28T10:43:53.127Z,73.10
2019-04-28T10:44:53.104Z,73.13
2019-04-28T10:45:53.092Z,73.54
2019-04-28T10:46:53.081Z,74.45
2019-04-28T10:47:53.072Z,74.32
2019-04-28T10:48:53.067Z,75.30
2019-04-28T10:49:53.048Z,72.11
2019-04-28T10:50:53.039Z,72.14
2019-04-28T10:51:59.088Z,68.55
2019-04-28T10:52:54.016Z,69.33
2019-04-28T10:53:53.006Z,67.47
2019-04-28T10:54:52.998Z,67.74
2019-04-28T10:55:52.986Z,66.60
2019-04-28T10:56:52.974Z,64.73
2019-04-28T10:57:52.963Z,62.98
2019-04-28T10:58:52.953Z,66.19
2019-04-28T10:59:52.946Z,62.62
2019-04-28T11:00:52.932Z,59.88
2019-04-28T11:01:52.920Z,61.91
2019-04-28T11:02:52.911Z,60.31
2019-04-28T11:03:52.899Z,61.36
2019-04-28T11:04:52.888Z,61.97
2019-04-28T11:05:52.877Z,63.93
2019-04-28T11:06:52.868Z,62.18
2019-04-28T11:07:52.856Z,61.95
2019-04-28T11:08:52.845Z,58.58
2019-04-28T11:09:52.837Z,58.05
2019-04-28T11:10:52.824Z,60.45
2019-04-28T11:11:52.813Z,60.85
2019-04-28T11:12:52.806Z,57.11
2019-04-28T11:13:52.793Z,59.36
2019-04-28T11:14:52.781Z,59.94
2019-04-28T11:15:52.775Z,57.34
2019-04-28T11:16:52.761Z,61.63
2019-04-28T11:17:52.750Z,57.03
2019-04-28T11:18:52.763Z,56.70
2019-04-28T11:19:52.729Z,55.72
2019-04-28T11:20:52.720Z,56.98
2019-04-28T11:21:52.707Z,55.54
2019-04-28T11:22:52.696Z,57.90
2019-04-28T11:23:52.686Z,59.41
2019-04-28T11:24:52.683Z,61.25
2019-04-28T11:25:52.665Z,63.72
2019-04-28T11:26:52.655Z,63.85
2019-04-28T11:27:55.416Z,62.74
2019-04-28T11:28:52.634Z,60.88
2019-04-28T11:29:52.640Z,62.37
2019-04-28T11:30:52.611Z,62.49
2019-04-28T11:31:52.600Z,59.32
2019-04-28T11:32:52.592Z,57.42
2019-04-28T11:33:52.578Z,58.58
2019-04-28T11:34:52.570Z,59.63
2019-04-28T11:35:52.563Z,58.80
2019-04-28T11:36:52.547Z,60.50
2019-04-28T11:37:52.536Z,62.74
2019-04-28T11:38:52.529Z,63.68
2019-04-28T11:39:52.514Z,64.18
2019-04-28T11:40:52.505Z,64.15
2019-04-28T11:41:52.495Z,62.75
2019-04-28T11:42:52.482Z,60.42
2019-04-28T11:43:52.470Z,60.62
2019-04-28T11:44:52.464Z,61.07
2019-04-28T11:45:52.453Z,60.77
2019-04-28T11:46:52.447Z,58.23
2019-04-28T11:47:52.436Z,58.74
2019-04-28T11:48:52.421Z,59.14
2019-04-28T11:49:52.411Z,61.71
2019-04-28T11:50:52.399Z,60.89
2019-04-28T11:51:52.390Z,62.24
2019-04-28T11:52:52.379Z,60.95
2019-04-28T11:53:52.369Z,61.49
2019-04-28T11:54:52.355Z,60.81
2019-04-28T11:55:52.343Z,63.04
2019-04-28T11:56:52.335Z,61.44
2019-04-28T11:57:52.322Z,65.81
2019-04-28T11:58:52.317Z,63.75
2019-04-28T11:59:54.113Z,61.52
2019-04-28T12:00:52.290Z,63.07
2019-04-28T12:01:52.278Z,64.39
2019-04-28T12:02:52.268Z,63.07
2019-04-28T12:03:52.258Z,63.98
2019-04-28T12:04:52.247Z,64.39
2019-04-28T12:05:52.242Z,61.88
2019-04-28T12:06:52.229Z,62.93
2019-04-28T12:07:52.215Z,64.07
2019-04-28T12:08:52.203Z,64.96
2019-04-28T12:10:03.856Z,65.06
2019-04-28T12:10:53.180Z,64.45
2019-04-28T12:11:52.179Z,63.54
2019-04-28T12:12:52.166Z,63.13
2019-04-28T12:13:52.150Z,64.04
2019-04-28T12:14:52.138Z,66.21
2019-04-28T12:15:52.132Z,64.69
2019-04-28T12:16:52.121Z,65.19
2019-04-28T12:17:52.111Z,64.04
2019-04-28T12:18:52.098Z,64.99
2019-04-28T12:19:52.090Z,64.25
2019-04-28T12:20:52.075Z,64.45
2019-04-28T12:21:52.066Z,63.16
2019-04-28T12:22:52.055Z,66.11
2019-04-28T12:23:52.044Z,65.60
2019-04-28T12:24:52.034Z,64.38
2019-04-28T12:25:52.023Z,65.63
2019-04-28T12:26:52.011Z,65.77
2019-04-28T12:27:52.000Z,66.71
2019-04-28T12:28:51.990Z,68.65
2019-04-28T12:29:51.978Z,68.07
2019-04-28T12:30:51.970Z,67.93
2019-04-28T12:31:51.957Z,69.39
2019-04-28T12:32:51.947Z,68.78
2019-04-28T12:33:51.936Z,67.66
2019-04-28T12:34:51.926Z,67.76
2019-04-28T12:35:51.914Z,68.17
2019-04-28T12:36:51.911Z,68.57
2019-04-28T12:37:51.893Z,69.76
2019-04-28T12:38:51.882Z,68.85
2019-04-28T12:39:51.875Z,68.10
2019-04-28T12:40:51.864Z,68.31
2019-04-28T12:41:51.849Z,69.12
2019-04-28T12:42:51.839Z,66.17
2019-04-28T12:43:51.828Z,67.90
2019-04-28T12:44:51.818Z,65.53
2019-04-28T12:45:51.809Z,66.35
2019-04-28T12:46:51.803Z,65.02
2019-04-28T12:47:51.785Z,66.35
2019-04-28T12:48:51.774Z,66.24
2019-04-28T12:49:51.763Z,63.80
2019-04-28T12:50:51.755Z,66.41
2019-04-28T12:51:51.746Z,65.06